sensor_id;sensor_type;location;lat;lon;timestamp;P1;durP1;ratioP1;P2;durP2;ratioP2
35907;SDS011;22003;50.320;8.054;2023-04-06T04:02:10;13.55;;;7.97;;
35907;SDS011;22003;50.320;8.054;2023-04-06T04:04:35;20.48;;;9.15;;
35907;SDS011;22003;50.320;8.054;2023-04-06T04:07:00;21.98;;;11.65;;
35907;SDS011;22003;50.320;8.054;2023-04-06T04:09:25;16.73;;;8.60;;
35907;SDS011;22003;50.320;8.054;2023-04-06T04:11:51;16.38;;;8.63;;
35907;SDS011;22003;50.320;8.054;2023-04-06T04:14:16;12.50;;;7.88;;
35907;SDS011;22003;50.320;8.054;2023-04-06T04:16:41;14.57;;;7.97;;
35907;SDS011;22003;50.320;8.054;2023-04-06T04:19:06;12.68;;;6.95;;
35907;SDS011;22003;50.320;8.054;2023-04-06T04:21:32;12.20;;;7.93;;
35907;SDS011;22003;50.320;8.054;2023-04-06T04:23:57;14.30;;;7.45;;
35907;SDS011;22003;50.320;8.054;2023-04-06T04:26:23;12.57;;;8.25;;
35907;SDS011;22003;50.320;8.054;2023-04-06T04:28:48;17.27;;;7.40;;
35907;SDS011;22003;50.320;8.054;2023-04-06T04:31:13;14.65;;;7.75;;
35907;SDS011;22003;50.320;8.054;2023-04-06T04:33:38;17.13;;;8.10;;
35907;SDS011;22003;50.320;8.054;2023-04-06T04:36:04;13.63;;;8.38;;
35907;SDS011;22003;50.320;8.054;2023-04-06T04:38:29;13.38;;;7.63;;
35907;SDS011;22003;50.320;8.054;2023-04-06T04:40:55;12.70;;;7.20;;
35907;SDS011;22003;50.320;8.054;2023-04-06T04:43:20;12.73;;;7.90;;
35907;SDS011;22003;50.320;8.054;2023-04-06T04:45:45;14.85;;;7.80;;
35907;SDS011;22003;50.320;8.054;2023-04-06T04:48:11;12.75;;;7.72;;
35907;SDS011;22003;50.320;8.054;2023-04-06T04:50:36;11.30;;;7.35;;
35907;SDS011;22003;50.320;8.054;2023-04-06T04:53:01;14.07;;;7.75;;
35907;SDS011;22003;50.320;8.054;2023-04-06T04:55:27;13.30;;;7.78;;
35907;SDS011;22003;50.320;8.054;2023-04-06T04:57:54;13.63;;;7.32;;
35907;SDS011;22003;50.320;8.054;2023-04-06T05:00:19;13.45;;;8.27;;
35907;SDS011;22003;50.320;8.054;2023-04-06T05:02:45;17.55;;;9.07;;
35907;SDS011;22003;50.320;8.054;2023-04-06T05:05:11;13.23;;;7.72;;
35907;SDS011;22003;50.320;8.054;2023-04-06T05:07:36;16.38;;;8.27;;
35907;SDS011;22003;50.320;8.054;2023-04-06T05:10:01;20.48;;;8.65;;
35907;SDS011;22003;50.320;8.054;2023-04-06T05:12:26;16.42;;;8.50;;
35907;SDS011;22003;50.320;8.054;2023-04-06T05:14:53;16.48;;;9.23;;
35907;SDS011;22003;50.320;8.054;2023-04-06T05:17:19;14.50;;;8.25;;
35907;SDS011;22003;50.320;8.054;2023-04-06T05:19:44;14.00;;;8.65;;
35907;SDS011;22003;50.320;8.054;2023-04-06T05:22:10;14.30;;;8.20;;
35907;SDS011;22003;50.320;8.054;2023-04-06T05:24:35;13.18;;;7.82;;
35907;SDS011;22003;50.320;8.054;2023-04-06T05:27:01;13.32;;;8.30;;
35907;SDS011;22003;50.320;8.054;2023-04-06T05:29:26;12.68;;;7.63;;
35907;SDS011;22003;50.320;8.054;2023-04-06T05:31:52;12.02;;;7.68;;
35907;SDS011;22003;50.320;8.054;2023-04-06T05:34:17;15.55;;;8.85;;
35907;SDS011;22003;50.320;8.054;2023-04-06T05:36:42;11.98;;;8.07;;
35907;SDS011;22003;50.320;8.054;2023-04-06T05:39:08;14.57;;;8.10;;
35907;SDS011;22003;50.320;8.054;2023-04-06T05:41:33;19.23;;;9.23;;
35907;SDS011;22003;50.320;8.054;2023-04-06T05:43:58;13.35;;;8.40;;
35907;SDS011;22003;50.320;8.054;2023-04-06T05:46:24;16.35;;;8.77;;
35907;SDS011;22003;50.320;8.054;2023-04-06T05:48:49;14.85;;;8.82;;
35907;SDS011;22003;50.320;8.054;2023-04-06T05:51:14;14.05;;;8.10;;
35907;SDS011;22003;50.320;8.054;2023-04-06T05:53:40;10.50;;;7.25;;
35907;SDS011;22003;50.320;8.054;2023-04-06T05:56:05;15.70;;;9.43;;
35907;SDS011;22003;50.320;8.054;2023-04-06T05:58:31;13.32;;;8.20;;
35907;SDS011;22003;50.320;8.054;2023-04-06T06:00:57;11.88;;;8.25;;
35907;SDS011;22003;50.320;8.054;2023-04-06T06:03:25;13.57;;;7.88;;
35907;SDS011;22003;50.320;8.054;2023-04-06T06:05:51;20.70;;;8.90;;
35907;SDS011;22003;50.320;8.054;2023-04-06T06:08:16;23.63;;;9.25;;
35907;SDS011;22003;50.320;8.054;2023-04-06T06:10:42;19.95;;;8.32;;
35907;SDS011;22003;50.320;8.054;2023-04-06T06:13:08;28.90;;;8.70;;
35907;SDS011;22003;50.320;8.054;2023-04-06T06:15:33;20.70;;;9.48;;
35907;SDS011;22003;50.320;8.054;2023-04-06T06:17:58;12.80;;;7.72;;
35907;SDS011;22003;50.320;8.054;2023-04-06T06:20:24;19.85;;;8.43;;
35907;SDS011;22003;50.320;8.054;2023-04-06T06:22:49;13.45;;;7.88;;
35907;SDS011;22003;50.320;8.054;2023-04-06T06:25:15;15.32;;;8.10;;
35907;SDS011;22003;50.320;8.054;2023-04-06T06:27:40;29.17;;;8.65;;
35907;SDS011;22003;50.320;8.054;2023-04-06T06:30:06;14.10;;;8.20;;
35907;SDS011;22003;50.320;8.054;2023-04-06T06:32:32;18.42;;;7.88;;
35907;SDS011;22003;50.320;8.054;2023-04-06T06:34:57;24.23;;;8.52;;
35907;SDS011;22003;50.320;8.054;2023-04-06T06:37:23;18.38;;;9.32;;
35907;SDS011;22003;50.320;8.054;2023-04-06T06:39:48;20.25;;;9.45;;
35907;SDS011;22003;50.320;8.054;2023-04-06T06:42:13;15.98;;;9.52;;
35907;SDS011;22003;50.320;8.054;2023-04-06T06:44:39;16.50;;;8.70;;
35907;SDS011;22003;50.320;8.054;2023-04-06T06:47:04;16.85;;;8.90;;
35907;SDS011;22003;50.320;8.054;2023-04-06T06:49:29;14.48;;;7.82;;
35907;SDS011;22003;50.320;8.054;2023-04-06T06:51:54;12.27;;;7.65;;
35907;SDS011;22003;50.320;8.054;2023-04-06T06:54:20;16.90;;;8.57;;
35907;SDS011;22003;50.320;8.054;2023-04-06T06:56:45;18.77;;;8.70;;
35907;SDS011;22003;50.320;8.054;2023-04-06T06:59:10;15.35;;;8.68;;
35907;SDS011;22003;50.320;8.054;2023-04-06T07:01:36;14.05;;;8.43;;
35907;SDS011;22003;50.320;8.054;2023-04-06T07:04:01;16.02;;;9.35;;
35907;SDS011;22003;50.320;8.054;2023-04-06T07:06:26;12.25;;;8.15;;
35907;SDS011;22003;50.320;8.054;2023-04-06T07:08:52;13.18;;;9.23;;
35907;SDS011;22003;50.320;8.054;2023-04-06T07:11:17;13.18;;;8.90;;
35907;SDS011;22003;50.320;8.054;2023-04-06T07:13:42;14.63;;;8.30;;
35907;SDS011;22003;50.320;8.054;2023-04-06T07:16:08;13.20;;;8.73;;
35907;SDS011;22003;50.320;8.054;2023-04-06T07:18:33;14.95;;;9.52;;
35907;SDS011;22003;50.320;8.054;2023-04-06T07:20:59;15.23;;;9.30;;
35907;SDS011;22003;50.320;8.054;2023-04-06T07:23:24;15.10;;;8.95;;
35907;SDS011;22003;50.320;8.054;2023-04-06T07:25:49;16.95;;;9.20;;
35907;SDS011;22003;50.320;8.054;2023-04-06T07:30:42;17.58;;;8.20;;
35907;SDS011;22003;50.320;8.054;2023-04-06T07:33:07;14.52;;;8.27;;
35907;SDS011;22003;50.320;8.054;2023-04-06T07:35:33;11.45;;;8.35;;
35907;SDS011;22003;50.320;8.054;2023-04-06T07:37:59;11.70;;;8.00;;
35907;SDS011;22003;50.320;8.054;2023-04-06T07:40:25;14.02;;;8.02;;
35907;SDS011;22003;50.320;8.054;2023-04-06T07:42:51;11.50;;;7.88;;
35907;SDS011;22003;50.320;8.054;2023-04-06T07:45:17;13.98;;;8.32;;
35907;SDS011;22003;50.320;8.054;2023-04-06T07:47:43;15.63;;;8.02;;
35907;SDS011;22003;50.320;8.054;2023-04-06T07:50:08;14.13;;;8.77;;
35907;SDS011;22003;50.320;8.054;2023-04-06T07:52:34;13.95;;;9.20;;
35907;SDS011;22003;50.320;8.054;2023-04-06T07:54:59;14.45;;;9.45;;
35907;SDS011;22003;50.320;8.054;2023-04-06T07:57:25;14.85;;;9.10;;
35907;SDS011;22003;50.320;8.054;2023-04-06T07:59:50;16.60;;;8.35;;
35907;SDS011;22003;50.320;8.054;2023-04-06T08:02:15;13.48;;;8.60;;
35907;SDS011;22003;50.320;8.054;2023-04-06T08:04:41;15.02;;;8.38;;
35907;SDS011;22003;50.320;8.054;2023-04-06T08:07:06;16.25;;;8.40;;
35907;SDS011;22003;50.320;8.054;2023-04-06T08:09:31;14.32;;;9.40;;
35907;SDS011;22003;50.320;8.054;2023-04-06T08:11:57;13.70;;;8.88;;
35907;SDS011;22003;50.320;8.054;2023-04-06T08:14:22;15.70;;;9.77;;
35907;SDS011;22003;50.320;8.054;2023-04-06T08:16:47;14.68;;;9.55;;
35907;SDS011;22003;50.320;8.054;2023-04-06T08:19:13;15.07;;;9.88;;
35907;SDS011;22003;50.320;8.054;2023-04-06T08:21:38;13.95;;;9.45;;
35907;SDS011;22003;50.320;8.054;2023-04-06T08:24:05;14.50;;;9.45;;
35907;SDS011;22003;50.320;8.054;2023-04-06T08:26:31;17.83;;;9.27;;
35907;SDS011;22003;50.320;8.054;2023-04-06T08:28:56;16.90;;;9.45;;
35907;SDS011;22003;50.320;8.054;2023-04-06T08:31:21;15.73;;;9.65;;
35907;SDS011;22003;50.320;8.054;2023-04-06T08:33:46;16.55;;;9.13;;
35907;SDS011;22003;50.320;8.054;2023-04-06T08:36:13;14.75;;;9.15;;
35907;SDS011;22003;50.320;8.054;2023-04-06T08:41:15;18.48;;;10.48;;
35907;SDS011;22003;50.320;8.054;2023-04-06T08:43:49;15.10;;;9.48;;
35907;SDS011;22003;50.320;8.054;2023-04-06T08:46:21;17.23;;;9.90;;
35907;SDS011;22003;50.320;8.054;2023-04-06T08:48:48;15.50;;;10.43;;
35907;SDS011;22003;50.320;8.054;2023-04-06T08:51:15;18.02;;;10.48;;
35907;SDS011;22003;50.320;8.054;2023-04-06T08:53:40;16.45;;;9.48;;
35907;SDS011;22003;50.320;8.054;2023-04-06T08:56:06;17.85;;;9.80;;
35907;SDS011;22003;50.320;8.054;2023-04-06T08:58:38;17.33;;;9.23;;
35907;SDS011;22003;50.320;8.054;2023-04-06T09:01:08;18.80;;;10.20;;
35907;SDS011;22003;50.320;8.054;2023-04-06T09:03:37;16.15;;;9.48;;
35907;SDS011;22003;50.320;8.054;2023-04-06T09:08:30;17.13;;;9.35;;
35907;SDS011;22003;50.320;8.054;2023-04-06T09:10:55;13.45;;;8.82;;
35907;SDS011;22003;50.320;8.054;2023-04-06T09:13:22;13.35;;;8.43;;
35907;SDS011;22003;50.320;8.054;2023-04-06T09:15:57;19.70;;;9.68;;
35907;SDS011;22003;50.320;8.054;2023-04-06T09:18:30;12.18;;;8.30;;
35907;SDS011;22003;50.320;8.054;2023-04-06T09:21:03;15.30;;;9.40;;
35907;SDS011;22003;50.320;8.054;2023-04-06T09:23:30;15.68;;;8.63;;
35907;SDS011;22003;50.320;8.054;2023-04-06T09:26:05;13.57;;;9.13;;
35907;SDS011;22003;50.320;8.054;2023-04-06T09:28:48;15.40;;;8.73;;
35907;SDS011;22003;50.320;8.054;2023-04-06T09:31:16;13.30;;;8.80;;
35907;SDS011;22003;50.320;8.054;2023-04-06T09:33:46;13.93;;;9.27;;
35907;SDS011;22003;50.320;8.054;2023-04-06T09:36:11;14.35;;;8.60;;
35907;SDS011;22003;50.320;8.054;2023-04-06T09:38:38;16.40;;;9.13;;
35907;SDS011;22003;50.320;8.054;2023-04-06T09:41:20;14.00;;;9.32;;
35907;SDS011;22003;50.320;8.054;2023-04-06T09:44:01;14.65;;;8.98;;
35907;SDS011;22003;50.320;8.054;2023-04-06T09:46:31;16.60;;;8.82;;
35907;SDS011;22003;50.320;8.054;2023-04-06T09:51:24;16.85;;;8.63;;
35907;SDS011;22003;50.320;8.054;2023-04-06T09:53:52;15.32;;;8.23;;
35907;SDS011;22003;50.320;8.054;2023-04-06T09:56:20;16.45;;;8.05;;
35907;SDS011;22003;50.320;8.054;2023-04-06T09:58:50;14.15;;;8.32;;
35907;SDS011;22003;50.320;8.054;2023-04-06T10:01:18;14.65;;;7.90;;
35907;SDS011;22003;50.320;8.054;2023-04-06T10:04:04;14.70;;;8.55;;
35907;SDS011;22003;50.320;8.054;2023-04-06T10:06:37;15.63;;;8.18;;
35907;SDS011;22003;50.320;8.054;2023-04-06T10:09:04;16.13;;;8.60;;
35907;SDS011;22003;50.320;8.054;2023-04-06T10:11:32;15.20;;;8.10;;
35907;SDS011;22003;50.320;8.054;2023-04-06T10:13:59;18.00;;;8.45;;
35907;SDS011;22003;50.320;8.054;2023-04-06T10:16:25;18.52;;;7.72;;
35907;SDS011;22003;50.320;8.054;2023-04-06T10:19:00;15.70;;;7.45;;
35907;SDS011;22003;50.320;8.054;2023-04-06T10:21:38;14.75;;;7.40;;
35907;SDS011;22003;50.320;8.054;2023-04-06T10:24:06;14.10;;;7.45;;
35907;SDS011;22003;50.320;8.054;2023-04-06T10:26:38;15.07;;;7.00;;
35907;SDS011;22003;50.320;8.054;2023-04-06T10:29:04;11.65;;;7.05;;
35907;SDS011;22003;50.320;8.054;2023-04-06T10:31:30;14.85;;;7.30;;
35907;SDS011;22003;50.320;8.054;2023-04-06T10:36:28;15.93;;;7.05;;
35907;SDS011;22003;50.320;8.054;2023-04-06T10:38:57;13.15;;;6.22;;
35907;SDS011;22003;50.320;8.054;2023-04-06T10:41:42;12.32;;;6.63;;
35907;SDS011;22003;50.320;8.054;2023-04-06T10:44:16;11.02;;;6.65;;
35907;SDS011;22003;50.320;8.054;2023-04-06T10:46:52;13.57;;;6.68;;
35907;SDS011;22003;50.320;8.054;2023-04-06T10:49:19;9.60;;;5.70;;
35907;SDS011;22003;50.320;8.054;2023-04-06T10:51:45;10.23;;;6.32;;
35907;SDS011;22003;50.320;8.054;2023-04-06T10:54:17;10.70;;;6.32;;
35907;SDS011;22003;50.320;8.054;2023-04-06T10:56:45;13.05;;;6.93;;
35907;SDS011;22003;50.320;8.054;2023-04-06T10:59:10;12.57;;;6.25;;
35907;SDS011;22003;50.320;8.054;2023-04-06T11:01:35;8.88;;;5.43;;
35907;SDS011;22003;50.320;8.054;2023-04-06T11:04:01;9.82;;;5.85;;
35907;SDS011;22003;50.320;8.054;2023-04-06T11:06:27;9.93;;;5.75;;
35907;SDS011;22003;50.320;8.054;2023-04-06T11:08:56;16.75;;;5.88;;
35907;SDS011;22003;50.320;8.054;2023-04-06T11:11:23;11.00;;;5.77;;
35907;SDS011;22003;50.320;8.054;2023-04-06T11:13:51;9.50;;;5.28;;
35907;SDS011;22003;50.320;8.054;2023-04-06T11:16:25;9.95;;;6.18;;
35907;SDS011;22003;50.320;8.054;2023-04-06T11:26:40;12.05;;;7.18;;
35907;SDS011;22003;50.320;8.054;2023-04-06T11:29:07;10.90;;;6.43;;
35907;SDS011;22003;50.320;8.054;2023-04-06T11:31:39;9.77;;;5.82;;
35907;SDS011;22003;50.320;8.054;2023-04-06T11:34:09;11.13;;;6.20;;
35907;SDS011;22003;50.320;8.054;2023-04-06T11:36:35;11.85;;;5.95;;
35907;SDS011;22003;50.320;8.054;2023-04-06T11:39:02;11.68;;;6.25;;
35907;SDS011;22003;50.320;8.054;2023-04-06T11:41:28;10.83;;;6.50;;
35907;SDS011;22003;50.320;8.054;2023-04-06T11:43:55;14.20;;;6.00;;
35907;SDS011;22003;50.320;8.054;2023-04-06T11:46:20;11.50;;;6.65;;
35907;SDS011;22003;50.320;8.054;2023-04-06T11:48:46;11.07;;;5.95;;
35907;SDS011;22003;50.320;8.054;2023-04-06T11:51:11;10.98;;;6.30;;
35907;SDS011;22003;50.320;8.054;2023-04-06T11:53:46;12.38;;;6.50;;
35907;SDS011;22003;50.320;8.054;2023-04-06T11:56:11;11.68;;;6.25;;
35907;SDS011;22003;50.320;8.054;2023-04-06T11:58:47;11.27;;;6.47;;
35907;SDS011;22003;50.320;8.054;2023-04-06T12:01:12;9.93;;;5.97;;
35907;SDS011;22003;50.320;8.054;2023-04-06T12:03:37;10.95;;;6.47;;
35907;SDS011;22003;50.320;8.054;2023-04-06T12:06:02;14.35;;;6.90;;
35907;SDS011;22003;50.320;8.054;2023-04-06T12:08:28;11.85;;;6.43;;
35907;SDS011;22003;50.320;8.054;2023-04-06T12:10:53;11.15;;;6.07;;
35907;SDS011;22003;50.320;8.054;2023-04-06T12:13:18;11.23;;;6.78;;
35907;SDS011;22003;50.320;8.054;2023-04-06T12:15:43;12.45;;;6.97;;
35907;SDS011;22003;50.320;8.054;2023-04-06T12:18:09;13.82;;;7.03;;
35907;SDS011;22003;50.320;8.054;2023-04-06T12:20:34;11.73;;;7.20;;
35907;SDS011;22003;50.320;8.054;2023-04-06T12:23:00;10.05;;;5.82;;
35907;SDS011;22003;50.320;8.054;2023-04-06T12:25:25;11.13;;;6.40;;
35907;SDS011;22003;50.320;8.054;2023-04-06T12:27:50;11.35;;;6.35;;
35907;SDS011;22003;50.320;8.054;2023-04-06T12:30:16;10.75;;;5.63;;
35907;SDS011;22003;50.320;8.054;2023-04-06T12:32:41;13.60;;;6.95;;
35907;SDS011;22003;50.320;8.054;2023-04-06T12:35:06;9.88;;;5.93;;
35907;SDS011;22003;50.320;8.054;2023-04-06T12:37:33;10.65;;;6.13;;
35907;SDS011;22003;50.320;8.054;2023-04-06T12:39:59;9.52;;;5.60;;
35907;SDS011;22003;50.320;8.054;2023-04-06T12:42:25;10.50;;;6.28;;
35907;SDS011;22003;50.320;8.054;2023-04-06T12:44:51;13.32;;;6.32;;
35907;SDS011;22003;50.320;8.054;2023-04-06T12:47:16;8.50;;;5.60;;
35907;SDS011;22003;50.320;8.054;2023-04-06T12:49:43;13.32;;;5.47;;
35907;SDS011;22003;50.320;8.054;2023-04-06T12:52:08;9.48;;;6.05;;
35907;SDS011;22003;50.320;8.054;2023-04-06T12:54:34;11.70;;;6.05;;
35907;SDS011;22003;50.320;8.054;2023-04-06T12:56:59;8.95;;;6.15;;
35907;SDS011;22003;50.320;8.054;2023-04-06T12:59:25;8.45;;;5.40;;
35907;SDS011;22003;50.320;8.054;2023-04-06T13:01:51;12.50;;;6.10;;
35907;SDS011;22003;50.320;8.054;2023-04-06T13:04:17;10.93;;;6.85;;
35907;SDS011;22003;50.320;8.054;2023-04-06T13:06:42;10.07;;;5.90;;
35907;SDS011;22003;50.320;8.054;2023-04-06T13:09:08;11.00;;;6.38;;
35907;SDS011;22003;50.320;8.054;2023-04-06T13:11:33;13.55;;;6.57;;
35907;SDS011;22003;50.320;8.054;2023-04-06T13:13:58;9.27;;;6.30;;
35907;SDS011;22003;50.320;8.054;2023-04-06T13:16:23;9.48;;;6.00;;
35907;SDS011;22003;50.320;8.054;2023-04-06T13:18:49;12.25;;;6.95;;
35907;SDS011;22003;50.320;8.054;2023-04-06T13:21:15;8.38;;;5.78;;
35907;SDS011;22003;50.320;8.054;2023-04-06T13:23:41;8.55;;;6.13;;
35907;SDS011;22003;50.320;8.054;2023-04-06T13:26:07;8.20;;;5.55;;
35907;SDS011;22003;50.320;8.054;2023-04-06T13:28:33;12.15;;;5.90;;
35907;SDS011;22003;50.320;8.054;2023-04-06T13:31:00;11.82;;;6.90;;
35907;SDS011;22003;50.320;8.054;2023-04-06T13:33:27;10.13;;;6.70;;
35907;SDS011;22003;50.320;8.054;2023-04-06T13:35:52;12.23;;;6.60;;
35907;SDS011;22003;50.320;8.054;2023-04-06T13:38:17;8.13;;;5.55;;
35907;SDS011;22003;50.320;8.054;2023-04-06T13:40:43;11.38;;;6.25;;
35907;SDS011;22003;50.320;8.054;2023-04-06T13:43:09;10.05;;;5.63;;
35907;SDS011;22003;50.320;8.054;2023-04-06T13:45:34;8.02;;;5.85;;
35907;SDS011;22003;50.320;8.054;2023-04-06T13:47:59;10.75;;;6.65;;
35907;SDS011;22003;50.320;8.054;2023-04-06T13:50:25;9.18;;;5.47;;
35907;SDS011;22003;50.320;8.054;2023-04-06T13:52:51;7.65;;;5.15;;
35907;SDS011;22003;50.320;8.054;2023-04-06T13:55:17;10.27;;;5.75;;
35907;SDS011;22003;50.320;8.054;2023-04-06T13:57:42;12.40;;;5.97;;
35907;SDS011;22003;50.320;8.054;2023-04-06T14:00:07;9.40;;;5.82;;
35907;SDS011;22003;50.320;8.054;2023-04-06T14:02:34;9.30;;;5.28;;
35907;SDS011;22003;50.320;8.054;2023-04-06T14:04:59;7.32;;;5.07;;
35907;SDS011;22003;50.320;8.054;2023-04-06T14:07:25;8.77;;;5.20;;
35907;SDS011;22003;50.320;8.054;2023-04-06T14:09:50;8.95;;;5.78;;
35907;SDS011;22003;50.320;8.054;2023-04-06T14:12:15;8.98;;;5.68;;
35907;SDS011;22003;50.320;8.054;2023-04-06T14:14:40;9.40;;;5.25;;
35907;SDS011;22003;50.320;8.054;2023-04-06T14:17:06;10.30;;;5.28;;
35907;SDS011;22003;50.320;8.054;2023-04-06T14:19:31;7.35;;;4.75;;
35907;SDS011;22003;50.320;8.054;2023-04-06T14:21:57;8.88;;;5.57;;
35907;SDS011;22003;50.320;8.054;2023-04-06T14:24:22;9.52;;;5.25;;
35907;SDS011;22003;50.320;8.054;2023-04-06T14:26:47;7.40;;;4.57;;
35907;SDS011;22003;50.320;8.054;2023-04-06T14:29:13;6.72;;;4.40;;
35907;SDS011;22003;50.320;8.054;2023-04-06T14:31:38;6.25;;;4.30;;
35907;SDS011;22003;50.320;8.054;2023-04-06T14:34:03;9.80;;;4.47;;
35907;SDS011;22003;50.320;8.054;2023-04-06T14:36:31;9.05;;;5.03;;
35907;SDS011;22003;50.320;8.054;2023-04-06T14:39:01;11.10;;;5.22;;
35907;SDS011;22003;50.320;8.054;2023-04-06T14:41:31;10.77;;;5.38;;
35907;SDS011;22003;50.320;8.054;2023-04-06T14:43:57;9.60;;;5.30;;
35907;SDS011;22003;50.320;8.054;2023-04-06T14:46:22;13.30;;;5.95;;
35907;SDS011;22003;50.320;8.054;2023-04-06T14:48:47;8.35;;;5.22;;
35907;SDS011;22003;50.320;8.054;2023-04-06T14:51:13;9.93;;;5.97;;
35907;SDS011;22003;50.320;8.054;2023-04-06T14:53:38;10.05;;;4.90;;
35907;SDS011;22003;50.320;8.054;2023-04-06T14:56:03;9.07;;;4.95;;
35907;SDS011;22003;50.320;8.054;2023-04-06T14:58:29;7.88;;;4.60;;
35907;SDS011;22003;50.320;8.054;2023-04-06T15:01:00;10.73;;;5.38;;
35907;SDS011;22003;50.320;8.054;2023-04-06T15:03:27;10.38;;;5.30;;
35907;SDS011;22003;50.320;8.054;2023-04-06T15:05:53;9.07;;;5.40;;
35907;SDS011;22003;50.320;8.054;2023-04-06T15:08:19;11.30;;;5.90;;
35907;SDS011;22003;50.320;8.054;2023-04-06T15:10:47;8.90;;;6.07;;
35907;SDS011;22003;50.320;8.054;2023-04-06T15:13:12;9.05;;;5.50;;
35907;SDS011;22003;50.320;8.054;2023-04-06T15:15:38;12.82;;;7.07;;
35907;SDS011;22003;50.320;8.054;2023-04-06T15:18:03;9.65;;;5.70;;
35907;SDS011;22003;50.320;8.054;2023-04-06T15:20:29;10.32;;;6.07;;
35907;SDS011;22003;50.320;8.054;2023-04-06T15:22:56;11.98;;;6.78;;
35907;SDS011;22003;50.320;8.054;2023-04-06T15:25:21;9.07;;;6.15;;
35907;SDS011;22003;50.320;8.054;2023-04-06T15:27:46;9.68;;;5.72;;
35907;SDS011;22003;50.320;8.054;2023-04-06T15:30:12;8.20;;;5.30;;
35907;SDS011;22003;50.320;8.054;2023-04-06T15:32:37;7.55;;;5.35;;
35907;SDS011;22003;50.320;8.054;2023-04-06T15:35:09;12.40;;;6.57;;
35907;SDS011;22003;50.320;8.054;2023-04-06T15:37:36;10.13;;;6.10;;
35907;SDS011;22003;50.320;8.054;2023-04-06T15:40:02;10.82;;;5.70;;
35907;SDS011;22003;50.320;8.054;2023-04-06T15:42:28;10.82;;;6.05;;
35907;SDS011;22003;50.320;8.054;2023-04-06T15:44:53;9.57;;;5.68;;
35907;SDS011;22003;50.320;8.054;2023-04-06T15:47:18;16.45;;;8.35;;
35907;SDS011;22003;50.320;8.054;2023-04-06T15:49:44;11.95;;;6.20;;
35907;SDS011;22003;50.320;8.054;2023-04-06T15:52:09;10.05;;;5.93;;
35907;SDS011;22003;50.320;8.054;2023-04-06T15:54:34;8.98;;;5.13;;
35907;SDS011;22003;50.320;8.054;2023-04-06T15:57:05;8.20;;;4.78;;
35907;SDS011;22003;50.320;8.054;2023-04-06T15:59:31;9.13;;;5.30;;
35907;SDS011;22003;50.320;8.054;2023-04-06T16:01:56;8.13;;;4.57;;
35907;SDS011;22003;50.320;8.054;2023-04-06T16:04:21;8.77;;;4.88;;
35907;SDS011;22003;50.320;8.054;2023-04-06T16:06:47;11.32;;;4.63;;
35907;SDS011;22003;50.320;8.054;2023-04-06T16:09:12;8.85;;;4.75;;
35907;SDS011;22003;50.320;8.054;2023-04-06T16:11:37;9.20;;;4.75;;
35907;SDS011;22003;50.320;8.054;2023-04-06T16:14:03;7.78;;;4.47;;
35907;SDS011;22003;50.320;8.054;2023-04-06T16:16:29;9.57;;;5.50;;
35907;SDS011;22003;50.320;8.054;2023-04-06T16:18:54;8.20;;;4.75;;
35907;SDS011;22003;50.320;8.054;2023-04-06T16:21:19;10.82;;;5.03;;
35907;SDS011;22003;50.320;8.054;2023-04-06T16:23:45;7.93;;;5.07;;
35907;SDS011;22003;50.320;8.054;2023-04-06T16:26:11;7.75;;;5.03;;
35907;SDS011;22003;50.320;8.054;2023-04-06T16:28:38;15.17;;;5.50;;
35907;SDS011;22003;50.320;8.054;2023-04-06T16:31:03;8.52;;;4.85;;
35907;SDS011;22003;50.320;8.054;2023-04-06T16:33:28;8.95;;;4.70;;
35907;SDS011;22003;50.320;8.054;2023-04-06T16:35:53;10.05;;;5.40;;
35907;SDS011;22003;50.320;8.054;2023-04-06T16:38:19;8.05;;;5.32;;
35907;SDS011;22003;50.320;8.054;2023-04-06T16:40:46;9.75;;;5.63;;
35907;SDS011;22003;50.320;8.054;2023-04-06T16:43:12;7.07;;;5.10;;
35907;SDS011;22003;50.320;8.054;2023-04-06T16:45:38;9.68;;;5.10;;
35907;SDS011;22003;50.320;8.054;2023-04-06T16:48:03;9.02;;;5.05;;
35907;SDS011;22003;50.320;8.054;2023-04-06T16:50:28;7.95;;;4.85;;
35907;SDS011;22003;50.320;8.054;2023-04-06T16:52:54;9.13;;;5.50;;
35907;SDS011;22003;50.320;8.054;2023-04-06T16:55:19;12.57;;;5.78;;
35907;SDS011;22003;50.320;8.054;2023-04-06T16:57:44;9.52;;;6.00;;
35907;SDS011;22003;50.320;8.054;2023-04-06T17:00:12;8.68;;;5.68;;
35907;SDS011;22003;50.320;8.054;2023-04-06T17:02:38;9.45;;;5.03;;
35907;SDS011;22003;50.320;8.054;2023-04-06T17:05:03;8.70;;;5.03;;
35907;SDS011;22003;50.320;8.054;2023-04-06T17:07:29;9.90;;;5.95;;
35907;SDS011;22003;50.320;8.054;2023-04-06T17:10:00;8.60;;;5.07;;
35907;SDS011;22003;50.320;8.054;2023-04-06T17:12:26;7.97;;;5.03;;
35907;SDS011;22003;50.320;8.054;2023-04-06T17:14:52;8.90;;;5.57;;
35907;SDS011;22003;50.320;8.054;2023-04-06T17:17:17;10.15;;;4.75;;
35907;SDS011;22003;50.320;8.054;2023-04-06T17:19:43;8.57;;;4.97;;
35907;SDS011;22003;50.320;8.054;2023-04-06T17:22:08;12.00;;;5.80;;
35907;SDS011;22003;50.320;8.054;2023-04-06T17:24:33;9.30;;;5.35;;
35907;SDS011;22003;50.320;8.054;2023-04-06T17:26:58;8.68;;;5.28;;
35907;SDS011;22003;50.320;8.054;2023-04-06T17:29:24;6.75;;;4.57;;
35907;SDS011;22003;50.320;8.054;2023-04-06T17:31:49;9.25;;;4.95;;
35907;SDS011;22003;50.320;8.054;2023-04-06T17:34:14;6.57;;;4.13;;
35907;SDS011;22003;50.320;8.054;2023-04-06T17:36:40;7.47;;;5.03;;
35907;SDS011;22003;50.320;8.054;2023-04-06T17:39:05;8.90;;;5.43;;
35907;SDS011;22003;50.320;8.054;2023-04-06T17:41:30;11.95;;;5.20;;
35907;SDS011;22003;50.320;8.054;2023-04-06T17:43:57;8.32;;;5.32;;
35907;SDS011;22003;50.320;8.054;2023-04-06T17:46:22;8.38;;;4.93;;
35907;SDS011;22003;50.320;8.054;2023-04-06T17:48:48;8.57;;;4.95;;
35907;SDS011;22003;50.320;8.054;2023-04-06T17:51:14;8.35;;;4.85;;
35907;SDS011;22003;50.320;8.054;2023-04-06T17:53:42;6.72;;;4.75;;
35907;SDS011;22003;50.320;8.054;2023-04-06T17:56:08;10.07;;;5.28;;
35907;SDS011;22003;50.320;8.054;2023-04-06T17:58:33;9.48;;;5.97;;
35907;SDS011;22003;50.320;8.054;2023-04-06T18:01:03;8.82;;;5.90;;
35907;SDS011;22003;50.320;8.054;2023-04-06T18:03:30;13.60;;;5.97;;
35907;SDS011;22003;50.320;8.054;2023-04-06T18:05:55;7.72;;;4.88;;
35907;SDS011;22003;50.320;8.054;2023-04-06T18:08:21;9.32;;;5.43;;
35907;SDS011;22003;50.320;8.054;2023-04-06T18:10:46;7.80;;;5.32;;
35907;SDS011;22003;50.320;8.054;2023-04-06T18:13:12;9.07;;;5.65;;
35907;SDS011;22003;50.320;8.054;2023-04-06T18:15:37;8.73;;;5.80;;
35907;SDS011;22003;50.320;8.054;2023-04-06T18:18:03;8.95;;;5.35;;
35907;SDS011;22003;50.320;8.054;2023-04-06T18:20:29;9.02;;;5.93;;
35907;SDS011;22003;50.320;8.054;2023-04-06T18:22:54;14.65;;;8.20;;
35907;SDS011;22003;50.320;8.054;2023-04-06T18:25:19;12.88;;;7.68;;
35907;SDS011;22003;50.320;8.054;2023-04-06T18:27:45;11.80;;;6.80;;
35907;SDS011;22003;50.320;8.054;2023-04-06T18:30:10;9.95;;;6.75;;
35907;SDS011;22003;50.320;8.054;2023-04-06T18:32:38;13.25;;;7.82;;
35907;SDS011;22003;50.320;8.054;2023-04-06T18:35:03;8.93;;;6.30;;
35907;SDS011;22003;50.320;8.054;2023-04-06T18:37:30;9.30;;;6.32;;
35907;SDS011;22003;50.320;8.054;2023-04-06T18:39:56;9.23;;;6.03;;
35907;SDS011;22003;50.320;8.054;2023-04-06T18:42:21;10.55;;;6.38;;
35907;SDS011;22003;50.320;8.054;2023-04-06T18:44:46;11.25;;;5.80;;
35907;SDS011;22003;50.320;8.054;2023-04-06T18:47:11;8.23;;;5.35;;
35907;SDS011;22003;50.320;8.054;2023-04-06T18:49:37;9.63;;;6.70;;
35907;SDS011;22003;50.320;8.054;2023-04-06T18:52:05;10.23;;;6.22;;
35907;SDS011;22003;50.320;8.054;2023-04-06T18:54:31;9.52;;;5.88;;